createdAt,value
2022-12-11T00:04:57.570Z,44.47
2022-12-11T00:10:01.083Z,46.17
2022-12-11T00:15:04.362Z,45.93
2022-12-11T00:20:08.311Z,48.70
2022-12-11T00:25:11.588Z,54.23
2022-12-11T00:30:15.304Z,51.73
2022-12-11T00:35:18.451Z,45.83
2022-12-11T00:40:21.442Z,43.50
2022-12-11T00:45:24.477Z,44.43
2022-12-11T00:50:27.793Z,50.20
2022-12-11T00:55:31.209Z,42.70
2022-12-11T01:00:34.240Z,43.13
2022-12-11T01:05:37.360Z,42.23
2022-12-11T01:10:40.371Z,45.00
2022-12-11T01:15:45.746Z,44.13
2022-12-11T01:20:49.134Z,45.53
2022-12-11T01:25:52.477Z,42.83
2022-12-11T01:30:55.511Z,48.87
2022-12-11T01:35:58.712Z,51.53
2022-12-11T01:41:01.703Z,44.10
2022-12-11T01:46:04.784Z,47.17
2022-12-11T01:51:07.905Z,49.00
2022-12-11T01:56:11.614Z,50.43
2022-12-11T02:01:25.662Z,47.70
2022-12-11T02:06:38.602Z,43.50
2022-12-11T02:12:00.317Z,42.90
2022-12-11T02:17:40.019Z,46.33
2022-12-11T02:23:04.299Z,42.00
2022-12-11T02:28:34.014Z,46.50
2022-12-11T02:33:54.100Z,51.33
2022-12-11T02:38:59.078Z,44.80
2022-12-11T02:44:04.453Z,56.67
2022-12-11T02:49:09.153Z,48.80
2022-12-11T02:54:21.077Z,48.27
2022-12-11T02:59:31.333Z,52.67
2022-12-11T03:04:36.764Z,50.73
2022-12-11T03:09:41.785Z,57.23
2022-12-11T03:14:45.304Z,50.83
2022-12-11T03:20:06.323Z,50.47
2022-12-11T03:25:22.450Z,52.33
2022-12-11T03:30:28.861Z,51.93
2022-12-11T03:35:39.952Z,45.87
2022-12-11T03:40:46.408Z,49.73
2022-12-11T03:45:51.123Z,45.53
2022-12-11T03:50:55.121Z,52.27
2022-12-11T03:56:00.847Z,48.40
2022-12-11T04:01:03.913Z,46.27
2022-12-11T04:06:07.162Z,47.10
2022-12-11T04:11:30.211Z,51.83
2022-12-11T04:16:33.295Z,45.77
2022-12-11T04:21:54.666Z,42.53
2022-12-11T04:26:57.650Z,40.00
2022-12-11T04:32:00.790Z,38.87
2022-12-11T04:37:03.800Z,47.40
2022-12-11T04:42:06.813Z,42.40
2022-12-11T04:47:10.047Z,42.13
2022-12-11T04:52:13.203Z,46.80
2022-12-11T04:57:16.954Z,41.87
2022-12-11T05:02:20.017Z,34.00
2022-12-11T05:07:23.003Z,37.33
2022-12-11T05:12:26.084Z,38.13
2022-12-11T05:17:29.089Z,35.37
2022-12-11T05:22:32.537Z,34.37
2022-12-11T05:27:35.664Z,27.87
2022-12-11T05:32:38.784Z,30.30
2022-12-11T05:37:41.876Z,30.77
2022-12-11T05:42:44.877Z,27.97
2022-12-11T05:47:47.947Z,26.47
2022-12-11T05:52:50.921Z,26.70
2022-12-11T05:57:53.878Z,28.43
2022-12-11T06:02:56.963Z,29.60
2022-12-11T06:08:01.705Z,31.30
2022-12-11T06:13:05.014Z,25.67
2022-12-11T06:18:08.317Z,29.97
2022-12-11T06:23:11.591Z,28.63
2022-12-11T06:28:14.938Z,24.87
2022-12-11T06:33:18.032Z,27.20
2022-12-11T06:38:21.031Z,25.70
2022-12-11T06:43:24.534Z,26.73
2022-12-11T06:48:27.569Z,27.00
2022-12-11T06:53:30.574Z,27.10
2022-12-11T06:58:36.010Z,29.57
2022-12-11T07:03:39.046Z,32.83
2022-12-11T07:08:42.143Z,29.03
2022-12-11T07:13:45.552Z,28.57
2022-12-11T07:18:51.007Z,26.03
2022-12-11T07:23:54.067Z,29.93
2022-12-11T07:29:01.186Z,29.00
2022-12-11T07:34:07.112Z,29.53
2022-12-11T07:39:12.158Z,30.63
2022-12-11T07:44:15.203Z,30.60
2022-12-11T07:49:18.271Z,30.27
2022-12-11T07:54:21.348Z,32.07
2022-12-11T07:59:24.367Z,30.43
2022-12-11T08:04:27.488Z,36.03
2022-12-11T08:09:30.640Z,37.17
2022-12-11T08:14:33.717Z,33.03
2022-12-11T08:19:36.722Z,32.30
2022-12-11T08:24:39.779Z,31.03
2022-12-11T08:29:42.879Z,31.77
2022-12-11T08:34:45.908Z,34.77
2022-12-11T08:39:48.891Z,33.57
2022-12-11T08:44:52.115Z,32.93
2022-12-11T08:49:57.019Z,33.03
2022-12-11T08:55:00.079Z,31.83
2022-12-11T09:00:07.006Z,30.77
2022-12-11T09:05:10.635Z,31.93
2022-12-11T09:10:13.953Z,33.20
2022-12-11T09:15:17.057Z,31.27
2022-12-11T09:20:20.120Z,29.30
2022-12-11T09:25:23.154Z,31.67
2022-12-11T09:30:26.139Z,34.60
2022-12-11T09:35:29.145Z,34.93
2022-12-11T09:40:33.075Z,32.00
2022-12-11T09:45:36.290Z,26.03
2022-12-11T09:50:41.032Z,29.10
2022-12-11T09:56:08.255Z,32.93
2022-12-11T10:01:22.856Z,32.57
2022-12-11T10:06:49.521Z,34.83
2022-12-11T10:12:16.923Z,36.97
2022-12-11T10:17:21.964Z,30.63
2022-12-11T10:22:30.118Z,30.20
2022-12-11T10:27:38.381Z,32.93
2022-12-11T10:32:50.389Z,34.97
2022-12-11T10:38:01.846Z,33.43
2022-12-11T10:43:04.849Z,30.73
2022-12-11T10:48:11.419Z,29.83
2022-12-11T10:53:22.294Z,39.80
2022-12-11T10:58:28.966Z,26.13
2022-12-11T11:03:33.668Z,30.47
2022-12-11T11:08:46.260Z,29.37
2022-12-11T11:13:49.811Z,26.40
2022-12-11T11:18:55.266Z,24.90
2022-12-11T11:23:58.748Z,24.90
2022-12-11T11:29:01.820Z,24.83
2022-12-11T11:34:15.689Z,32.00
2022-12-11T11:39:36.227Z,27.63
2022-12-11T11:44:47.140Z,27.27
2022-12-11T11:50:08.339Z,27.73
2022-12-11T11:55:29.813Z,26.60
2022-12-11T12:00:34.120Z,31.13
2022-12-11T12:05:52.581Z,31.13
2022-12-11T12:11:08.478Z,33.13
2022-12-11T12:16:52.349Z,28.17
2022-12-11T12:21:53.604Z,28.97
2022-12-11T12:27:51.488Z,29.50
2022-12-11T12:33:16.157Z,35.20
2022-12-11T12:38:43.783Z,34.77
2022-12-11T12:44:04.963Z,32.70
2022-12-11T12:49:17.722Z,31.90
2022-12-11T12:54:21.423Z,29.07
2022-12-11T12:59:26.742Z,26.13
2022-12-11T13:10:03.947Z,30.27
2022-12-11T13:15:23.378Z,34.17
2022-12-11T13:20:29.720Z,32.33
2022-12-11T13:25:45.874Z,34.27
2022-12-11T13:31:16.803Z,34.27
2022-12-11T13:36:33.959Z,28.47
2022-12-11T13:41:38.539Z,32.17
2022-12-11T13:46:41.753Z,25.73
2022-12-11T13:51:54.304Z,31.03
2022-12-11T13:56:59.195Z,27.40
2022-12-11T14:02:31.648Z,28.53
2022-12-11T14:07:56.736Z,32.63
2022-12-11T14:13:40.298Z,31.77
2022-12-11T14:18:43.299Z,34.80
2022-12-11T14:23:53.829Z,32.43
2022-12-11T14:28:56.866Z,32.03
2022-12-11T14:34:13.026Z,27.53
2022-12-11T14:39:34.283Z,27.17
2022-12-11T14:44:50.766Z,31.73
2022-12-11T14:49:59.021Z,30.20
2022-12-11T14:55:20.066Z,33.77
2022-12-11T15:00:29.399Z,33.53
2022-12-11T15:05:40.379Z,31.83
2022-12-11T15:10:55.344Z,40.53
2022-12-11T15:15:59.222Z,39.30
2022-12-11T15:21:09.618Z,36.10
2022-12-11T15:26:12.913Z,33.10
2022-12-11T15:31:31.483Z,34.83
2022-12-11T15:36:36.928Z,30.57
2022-12-11T15:41:42.561Z,30.80
2022-12-11T15:46:45.540Z,34.93
2022-12-11T15:51:48.570Z,34.20
2022-12-11T15:56:51.657Z,34.97
2022-12-11T16:01:54.686Z,33.73
2022-12-11T16:06:57.849Z,34.77
2022-12-11T16:12:00.946Z,39.20
2022-12-11T16:17:04.929Z,35.10
2022-12-11T16:22:09.155Z,35.80
2022-12-11T16:27:12.218Z,37.80
2022-12-11T16:32:15.409Z,32.83
2022-12-11T16:37:18.509Z,36.93
2022-12-11T16:42:21.547Z,40.87
2022-12-11T16:47:24.587Z,38.90
2022-12-11T16:52:27.776Z,38.47
2022-12-11T16:57:30.872Z,39.97
2022-12-11T17:02:34.303Z,38.50
2022-12-11T17:07:37.420Z,38.17
2022-12-11T17:12:40.432Z,38.87
2022-12-11T17:17:44.547Z,35.70
2022-12-11T17:22:47.537Z,37.43
2022-12-11T17:27:50.912Z,38.60
2022-12-11T17:32:53.928Z,40.73
2022-12-11T17:37:56.931Z,40.97
2022-12-11T17:43:00.013Z,42.13
2022-12-11T17:48:03.046Z,40.20
2022-12-11T17:53:06.219Z,37.57
2022-12-11T17:58:30.115Z,43.73
2022-12-11T18:03:33.173Z,45.80
2022-12-11T18:08:36.727Z,42.30
2022-12-11T18:13:39.990Z,38.40
2022-12-11T18:18:43.607Z,39.17
2022-12-11T18:23:47.950Z,46.43
2022-12-11T18:28:52.066Z,46.03
2022-12-11T18:33:55.195Z,39.87
2022-12-11T18:38:58.171Z,46.30
2022-12-11T18:44:09.281Z,40.03
2022-12-11T18:49:12.944Z,38.90
2022-12-11T18:54:16.080Z,44.20
2022-12-11T18:59:19.314Z,44.77
2022-12-11T19:04:22.487Z,42.73
2022-12-11T19:09:26.185Z,45.87
2022-12-11T19:14:29.273Z,47.70
2022-12-11T19:19:32.656Z,44.93
2022-12-11T19:24:35.808Z,48.00
2022-12-11T19:29:38.880Z,49.33
2022-12-11T19:34:41.811Z,43.03
2022-12-11T19:39:45.008Z,43.93
2022-12-11T19:44:48.138Z,48.80
2022-12-11T19:49:51.489Z,47.27
2022-12-11T19:54:54.553Z,45.17
2022-12-11T19:59:57.773Z,49.13
2022-12-11T20:05:01.178Z,45.50
2022-12-11T20:10:05.615Z,55.60
2022-12-11T20:15:09.936Z,40.40
2022-12-11T20:20:13.529Z,43.67
2022-12-11T20:25:16.774Z,50.13
2022-12-11T20:30:20.285Z,46.13
2022-12-11T20:35:23.744Z,45.53
2022-12-11T20:40:27.347Z,44.63
2022-12-11T20:45:30.698Z,50.83
2022-12-11T20:50:33.754Z,45.60
2022-12-11T20:55:40.969Z,46.13
2022-12-11T21:00:44.307Z,43.30
2022-12-11T21:05:47.643Z,47.50
2022-12-11T21:10:50.843Z,48.97
2022-12-11T21:15:56.921Z,45.53
2022-12-11T21:21:00.171Z,46.77
2022-12-11T21:26:03.958Z,47.93
2022-12-11T21:31:09.771Z,46.00
2022-12-11T21:36:14.829Z,44.80
2022-12-11T21:41:21.140Z,48.00
2022-12-11T21:46:26.638Z,49.60
2022-12-11T21:51:37.670Z,49.50
2022-12-11T21:56:42.527Z,50.83
2022-12-11T22:01:46.500Z,50.30
2022-12-11T22:06:49.626Z,57.50
2022-12-11T22:11:57.959Z,49.30
2022-12-11T22:17:01.663Z,58.60
2022-12-11T22:22:04.819Z,55.97
2022-12-11T22:27:08.170Z,58.17
2022-12-11T22:32:11.267Z,50.60
2022-12-11T22:37:14.319Z,53.93
2022-12-11T22:42:17.473Z,49.17
2022-12-11T22:47:20.543Z,52.03
2022-12-11T22:52:23.557Z,53.77
2022-12-11T22:57:26.596Z,56.33
2022-12-11T23:02:29.783Z,55.83
2022-12-11T23:07:33.297Z,55.63
2022-12-11T23:12:36.412Z,52.07
2022-12-11T23:17:39.835Z,55.13
2022-12-11T23:22:42.809Z,51.73
2022-12-11T23:27:45.924Z,47.30
2022-12-11T23:32:48.950Z,50.97
2022-12-11T23:37:52.059Z,54.57
2022-12-11T23:42:55.060Z,53.20
2022-12-11T23:47:58.533Z,52.70
2022-12-11T23:53:01.449Z,53.80
2022-12-11T23:58:04.543Z,48.57
